Perkasie, Pennsylvania
Current Conditions -  °F | °C
As of 10:15 AM on Thursday 18 Dec 2014 (Local Time) from KUKT Reporting Station
Overcast Overcast  
Wind Chill: 28°   Ceiling: 3500
Heat Index: 36°   Visibility: 10mi
Dew Point: 23°   Wind: 10mph
Humidity: 60%   Direction: 310°NW
Pressure: 30.06"   Gusts: 17mph
Location:  40.37°N, 75.3°W
Report Text: KUKT 181515Z AUTO 31009G15KT 10SM OVC035 02/M05 A3006 RMK AO1
Loading
Personal Weather Stations






























Interactive Weather Map New forecast layout! Learn more

10-Day Weather Forecast

Advertisements
Track Severe Weather on mobile